createdAt,value
2023-03-07T00:01:26.824Z,0.20
2023-03-07T00:03:55.585Z,0.37
2023-03-07T00:06:24.317Z,0.39
2023-03-07T00:08:52.884Z,0.12
2023-03-07T00:11:21.661Z,-0.01
2023-03-07T00:13:50.155Z,-0.10
2023-03-07T00:16:21.285Z,0.11
2023-03-07T00:18:51.411Z,0.09
2023-03-07T00:21:22.035Z,0.11
2023-03-07T00:23:53.411Z,0.03
2023-03-07T00:26:24.695Z,-0.01
2023-03-07T00:28:55.178Z,-0.15
2023-03-07T00:31:24.504Z,-0.06
2023-03-07T00:33:54.313Z,-0.15
2023-03-07T00:36:24.249Z,-0.18
2023-03-07T00:38:53.199Z,-0.16
2023-03-07T00:41:23.586Z,-0.15
2023-03-07T00:43:52.542Z,-0.23
2023-03-07T00:46:22.312Z,-0.51
2023-03-07T00:48:51.261Z,-0.50
2023-03-07T00:51:23.384Z,-0.32
2023-03-07T00:53:52.125Z,-0.80
2023-03-07T00:56:21.821Z,-0.61
2023-03-07T00:58:50.386Z,-0.58
2023-03-07T01:01:22.130Z,-0.52
2023-03-07T01:03:53.838Z,-0.67
2023-03-07T01:06:26.101Z,-0.44
2023-03-07T01:08:54.919Z,-0.69
2023-03-07T01:11:23.406Z,-0.55
2023-03-07T01:13:51.836Z,-0.69
2023-03-07T01:16:23.106Z,-0.35
2023-03-07T01:18:53.443Z,-0.56
2023-03-07T01:21:25.973Z,-0.58
2023-03-07T01:23:54.896Z,-0.54
2023-03-07T01:26:26.577Z,-1.15
2023-03-07T01:28:56.677Z,-0.72
2023-03-07T01:31:25.776Z,-0.73
2023-03-07T01:33:55.847Z,-0.74
2023-03-07T01:36:30.148Z,-0.73
2023-03-07T01:39:01.136Z,-0.83
2023-03-07T01:41:32.468Z,-0.79
2023-03-07T01:44:02.530Z,-0.76
2023-03-07T01:46:53.224Z,-0.75
2023-03-07T01:49:26.234Z,-0.69
2023-03-07T01:52:02.748Z,-0.65
2023-03-07T01:54:33.644Z,-0.73
2023-03-07T01:57:03.707Z,-0.82
2023-03-07T01:59:35.802Z,-0.74
2023-03-07T02:02:08.104Z,-0.78
2023-03-07T02:04:41.170Z,-0.73
2023-03-07T02:07:12.574Z,-0.54
2023-03-07T02:09:42.090Z,-0.84
2023-03-07T02:12:11.693Z,-0.65
2023-03-07T02:14:40.064Z,-0.65
2023-03-07T02:17:08.468Z,-0.40
2023-03-07T02:19:54.993Z,-0.74
2023-03-07T02:22:25.298Z,-1.20
2023-03-07T02:24:57.605Z,-0.83
2023-03-07T02:27:31.156Z,-0.65
2023-03-07T02:29:59.473Z,-0.83
2023-03-07T02:32:27.903Z,-0.90
2023-03-07T02:34:56.228Z,-0.71
2023-03-07T02:37:30.513Z,-0.79
2023-03-07T02:40:02.141Z,-0.78
2023-03-07T02:42:34.887Z,-0.90
2023-03-07T02:45:06.374Z,-0.74
2023-03-07T02:47:34.681Z,-0.53
2023-03-07T02:50:03.099Z,-0.64
2023-03-07T02:52:31.444Z,-0.58
2023-03-07T02:54:59.815Z,-1.08
2023-03-07T02:57:28.251Z,-1.31
2023-03-07T02:59:58.010Z,-0.66
2023-03-07T03:02:26.316Z,-0.76
2023-03-07T03:04:54.658Z,-1.12
2023-03-07T03:07:23.011Z,-0.79
2023-03-07T03:09:51.263Z,-0.74
2023-03-07T03:12:19.733Z,-0.91
2023-03-07T03:14:48.460Z,-0.67
2023-03-07T03:17:18.799Z,-0.84
2023-03-07T03:19:47.100Z,-0.59
2023-03-07T03:22:15.429Z,-0.95
2023-03-07T03:24:44.661Z,-0.86
2023-03-07T03:27:13.318Z,-0.83
2023-03-07T03:29:41.633Z,-0.97
2023-03-07T03:32:10.195Z,-1.09
2023-03-07T03:34:40.098Z,-0.93
2023-03-07T03:37:08.833Z,-0.90
2023-03-07T03:39:37.801Z,-0.92
2023-03-07T03:42:06.359Z,-1.00
2023-03-07T03:44:34.747Z,-0.82
2023-03-07T03:47:04.296Z,-0.93
2023-03-07T03:49:33.275Z,-0.82
2023-03-07T03:52:02.964Z,-0.80
2023-03-07T03:54:31.251Z,-0.65
2023-03-07T03:56:59.597Z,-0.84
2023-03-07T03:59:28.104Z,-0.72
2023-03-07T04:01:56.545Z,-0.80
2023-03-07T04:04:25.801Z,-0.87
2023-03-07T04:06:54.537Z,-0.76
2023-03-07T04:09:24.328Z,-1.03
2023-03-07T04:11:52.782Z,-1.25
2023-03-07T04:14:21.147Z,-0.82
2023-03-07T04:16:49.562Z,-0.77
2023-03-07T04:19:18.213Z,-0.49
2023-03-07T04:21:46.561Z,-0.65
2023-03-07T04:24:14.944Z,-0.74
2023-03-07T04:26:45.039Z,-0.68
2023-03-07T04:29:13.346Z,-0.75
2023-03-07T04:31:41.790Z,-0.74
2023-03-07T04:34:10.542Z,-0.92
2023-03-07T04:36:39.410Z,-0.69
2023-03-07T04:39:07.786Z,-0.72
2023-03-07T04:41:36.054Z,-0.56
2023-03-07T04:44:06.041Z,-0.61
2023-03-07T04:46:34.493Z,-0.45
2023-03-07T04:49:02.850Z,-0.57
2023-03-07T04:51:31.147Z,-0.66
2023-03-07T04:53:59.459Z,-0.56
2023-03-07T04:56:28.055Z,-0.73
2023-03-07T04:58:56.370Z,-0.51
2023-03-07T05:01:26.112Z,-0.43
2023-03-07T05:03:54.596Z,-0.69
2023-03-07T05:06:23.082Z,-0.36
2023-03-07T05:08:51.605Z,-0.39
2023-03-07T05:11:19.945Z,-0.46
2023-03-07T05:13:48.313Z,-0.46
2023-03-07T05:16:17.876Z,-0.42
2023-03-07T05:18:47.627Z,-0.54
2023-03-07T05:21:15.965Z,-0.30
2023-03-07T05:23:44.376Z,-0.42
2023-03-07T05:26:12.975Z,-0.21
2023-03-07T05:28:41.616Z,-0.38
2023-03-07T05:31:10.256Z,-0.80
2023-03-07T05:33:38.599Z,-0.53
2023-03-07T05:36:09.215Z,-0.25
2023-03-07T05:38:37.606Z,-0.14
2023-03-07T05:41:06.073Z,-0.46
2023-03-07T05:43:34.690Z,-0.16
2023-03-07T05:46:03.071Z,-0.49
2023-03-07T05:48:31.440Z,-0.04
2023-03-07T05:51:01.284Z,-0.01
2023-03-07T05:53:31.015Z,0.05
2023-03-07T05:55:59.307Z,0.11
2023-03-07T05:58:27.660Z,0.03
2023-03-07T06:00:56.210Z,-0.08
2023-03-07T06:03:24.598Z,0.11
2023-03-07T06:05:52.944Z,0.15
2023-03-07T06:08:21.396Z,-0.28
2023-03-07T06:10:52.979Z,0.13
2023-03-07T06:13:22.594Z,-0.06
2023-03-07T06:15:52.030Z,-0.06
2023-03-07T06:18:20.837Z,0.10
2023-03-07T06:20:58.050Z,0.05
2023-03-07T06:23:26.807Z,-0.41
2023-03-07T06:25:56.764Z,-0.05
2023-03-07T06:28:25.683Z,0.07
2023-03-07T06:30:54.250Z,0.12
2023-03-07T06:33:22.823Z,0.13
2023-03-07T06:35:51.457Z,0.09
2023-03-07T06:38:19.876Z,-0.06
2023-03-07T06:40:58.178Z,0.17
2023-03-07T06:43:26.552Z,0.27
2023-03-07T06:45:55.617Z,0.17
2023-03-07T06:48:24.384Z,0.11
2023-03-07T06:50:52.729Z,0.01
2023-03-07T06:53:21.475Z,0.18
2023-03-07T06:55:51.024Z,0.28
2023-03-07T06:58:20.736Z,0.26
2023-03-07T07:00:49.186Z,0.31
2023-03-07T07:03:19.999Z,0.23
2023-03-07T07:05:49.038Z,-0.01
2023-03-07T07:08:17.510Z,0.35
2023-03-07T07:10:46.086Z,0.45
2023-03-07T07:13:15.278Z,0.50
2023-03-07T07:15:45.065Z,0.48
2023-03-07T07:18:14.722Z,0.40
2023-03-07T07:20:43.579Z,0.43
2023-03-07T07:23:11.990Z,0.26
2023-03-07T07:25:40.804Z,0.45
2023-03-07T07:28:09.068Z,0.26
2023-03-07T07:30:37.396Z,0.48
2023-03-07T07:33:07.321Z,0.55
2023-03-07T07:35:35.895Z,0.23
2023-03-07T07:38:04.660Z,0.44
2023-03-07T07:40:32.976Z,0.56
2023-03-07T07:43:01.288Z,0.62
2023-03-07T07:45:29.687Z,0.36
2023-03-07T07:47:57.969Z,0.67
2023-03-07T07:50:28.044Z,0.72
2023-03-07T07:52:56.316Z,0.79
2023-03-07T07:55:25.667Z,0.74
2023-03-07T07:57:54.076Z,0.81
2023-03-07T08:00:23.056Z,0.90
2023-03-07T08:02:52.432Z,0.95
2023-03-07T08:05:23.130Z,0.81
2023-03-07T08:07:52.974Z,0.75
2023-03-07T08:10:21.904Z,0.68
2023-03-07T08:12:52.309Z,1.04
2023-03-07T08:15:22.037Z,0.90
2023-03-07T08:17:51.572Z,0.99
2023-03-07T08:20:22.603Z,1.06
2023-03-07T08:22:53.123Z,1.13
2023-03-07T08:25:23.895Z,1.12
2023-03-07T08:27:55.322Z,1.37
2023-03-07T08:30:24.644Z,1.31
2023-03-07T08:32:53.520Z,1.51
2023-03-07T08:35:23.111Z,1.44
2023-03-07T08:37:55.812Z,1.44
2023-03-07T08:40:26.248Z,1.28
2023-03-07T08:42:55.400Z,1.62
2023-03-07T08:45:24.436Z,1.37
2023-03-07T08:47:54.843Z,1.51
2023-03-07T08:50:23.870Z,1.59
2023-03-07T08:52:53.638Z,1.69
2023-03-07T08:55:21.981Z,1.59
2023-03-07T08:57:50.630Z,1.53
2023-03-07T09:00:19.919Z,1.41
2023-03-07T09:02:48.195Z,1.51
2023-03-07T09:05:16.625Z,1.22
2023-03-07T09:07:44.943Z,1.45
2023-03-07T09:10:14.784Z,1.35
2023-03-07T09:12:43.248Z,1.44
2023-03-07T09:15:12.437Z,1.42
2023-03-07T09:17:40.875Z,1.48
2023-03-07T09:20:11.931Z,1.37
2023-03-07T09:22:40.269Z,1.50
2023-03-07T09:25:09.171Z,1.53
2023-03-07T09:27:39.327Z,1.46
2023-03-07T09:30:09.244Z,1.59
2023-03-07T09:32:37.919Z,1.51
2023-03-07T09:35:07.108Z,1.86
2023-03-07T09:37:35.428Z,1.55
2023-03-07T09:40:05.460Z,1.82
2023-03-07T09:42:43.069Z,1.85
2023-03-07T09:45:30.828Z,1.69
2023-03-07T09:48:33.932Z,1.88
2023-03-07T09:51:11.828Z,1.86
2023-03-07T09:53:44.571Z,1.88
2023-03-07T09:56:16.750Z,1.93
2023-03-07T09:58:51.408Z,2.14
2023-03-07T10:01:25.558Z,2.22
2023-03-07T10:04:01.289Z,1.98
2023-03-07T10:06:33.966Z,1.83
2023-03-07T10:09:05.415Z,2.14
2023-03-07T10:11:54.471Z,2.00
2023-03-07T10:14:38.192Z,2.08
2023-03-07T10:17:16.640Z,2.08
2023-03-07T10:19:50.706Z,2.04
2023-03-07T10:22:25.821Z,2.08
2023-03-07T10:25:08.149Z,2.13
2023-03-07T10:27:36.443Z,2.30
2023-03-07T10:30:15.898Z,2.13
2023-03-07T10:32:47.166Z,2.03
2023-03-07T10:35:21.116Z,2.09
2023-03-07T10:37:52.030Z,2.03
2023-03-07T10:40:26.568Z,2.01
2023-03-07T10:42:55.908Z,2.14
2023-03-07T10:45:28.838Z,2.36
2023-03-07T10:47:57.314Z,2.32
2023-03-07T10:50:31.242Z,2.33
2023-03-07T10:53:01.910Z,2.39
2023-03-07T10:55:36.648Z,2.52
2023-03-07T10:58:17.150Z,2.59
2023-03-07T11:00:49.076Z,2.65
2023-03-07T11:03:49.671Z,2.84
2023-03-07T11:06:35.916Z,2.93
2023-03-07T11:09:12.116Z,2.94
2023-03-07T11:11:40.801Z,2.42
2023-03-07T11:14:13.293Z,2.98
2023-03-07T11:16:50.448Z,2.84
2023-03-07T11:19:38.369Z,2.90
2023-03-07T11:22:19.619Z,2.93
2023-03-07T11:24:55.593Z,2.88
2023-03-07T11:27:26.680Z,3.23
2023-03-07T11:30:10.162Z,2.96
2023-03-07T11:32:45.525Z,2.75
2023-03-07T11:35:20.080Z,3.13
2023-03-07T11:37:59.288Z,0.97
2023-03-07T11:40:30.985Z,2.82
2023-03-07T11:43:13.180Z,3.08
2023-03-07T11:45:52.201Z,2.86
2023-03-07T11:48:42.059Z,2.75
2023-03-07T11:51:28.763Z,2.80
2023-03-07T11:54:08.113Z,2.85
2023-03-07T11:56:42.260Z,2.83
2023-03-07T11:59:24.420Z,2.91
2023-03-07T12:01:55.908Z,2.98
2023-03-07T12:04:49.479Z,2.96
2023-03-07T12:07:32.457Z,2.73
2023-03-07T12:10:07.068Z,2.80
2023-03-07T12:12:53.476Z,2.99
2023-03-07T12:15:37.891Z,2.96
2023-03-07T12:18:28.983Z,2.85
2023-03-07T12:21:12.096Z,2.68
2023-03-07T12:23:45.548Z,2.92
2023-03-07T12:26:18.767Z,2.70
2023-03-07T12:28:51.220Z,2.75
2023-03-07T12:31:25.965Z,2.81
2023-03-07T12:34:01.205Z,2.86
2023-03-07T12:36:35.599Z,2.78
2023-03-07T12:39:16.048Z,2.84
2023-03-07T12:41:56.097Z,2.72
2023-03-07T12:44:35.707Z,2.91
2023-03-07T12:47:12.144Z,2.95
2023-03-07T12:49:49.991Z,2.92
2023-03-07T12:52:31.675Z,2.92
2023-03-07T12:55:06.016Z,2.96
2023-03-07T12:57:39.006Z,3.01
2023-03-07T13:00:12.370Z,2.88
2023-03-07T13:02:46.055Z,2.84
2023-03-07T13:05:18.390Z,2.69
2023-03-07T13:07:48.945Z,2.72
2023-03-07T13:10:21.027Z,2.66
2023-03-07T13:12:49.901Z,2.73
2023-03-07T13:15:48.352Z,2.86
2023-03-07T13:18:28.541Z,2.86
2023-03-07T13:21:33.903Z,2.92
2023-03-07T13:24:38.819Z,3.00
2023-03-07T13:27:16.585Z,2.89
2023-03-07T13:30:04.114Z,2.96
2023-03-07T13:33:03.197Z,3.01
2023-03-07T13:35:57.897Z,2.98
2023-03-07T13:38:34.309Z,2.90
2023-03-07T13:41:04.759Z,2.95
2023-03-07T13:43:49.709Z,2.96
2023-03-07T13:46:49.334Z,3.00
2023-03-07T13:49:46.590Z,2.81
2023-03-07T13:52:31.252Z,3.02
2023-03-07T13:55:02.245Z,3.04
2023-03-07T13:57:41.926Z,3.02
2023-03-07T14:00:25.938Z,2.77
2023-03-07T14:02:55.016Z,2.92
2023-03-07T14:05:24.384Z,2.95
2023-03-07T14:07:53.528Z,2.94
2023-03-07T14:10:25.658Z,3.00
2023-03-07T14:13:18.656Z,2.84
2023-03-07T14:16:00.657Z,2.39
2023-03-07T14:18:44.732Z,2.79
2023-03-07T14:21:17.272Z,2.88
2023-03-07T14:24:03.065Z,2.80
2023-03-07T14:26:37.152Z,2.94
2023-03-07T14:29:17.905Z,2.85
2023-03-07T14:31:47.706Z,2.72
2023-03-07T14:34:26.621Z,2.78
2023-03-07T14:36:57.471Z,2.89
2023-03-07T14:39:31.076Z,2.90
2023-03-07T14:42:07.296Z,2.82
2023-03-07T14:44:53.785Z,2.92
2023-03-07T14:47:37.364Z,2.86
2023-03-07T14:50:14.648Z,2.87
2023-03-07T14:52:43.810Z,2.70
2023-03-07T14:55:20.160Z,2.97
2023-03-07T14:57:53.076Z,3.00
2023-03-07T15:00:28.470Z,3.00
2023-03-07T15:02:58.578Z,2.94
2023-03-07T15:05:29.011Z,3.04
2023-03-07T15:07:57.456Z,3.17
2023-03-07T15:10:30.354Z,3.03
2023-03-07T15:12:59.404Z,3.04
2023-03-07T15:15:34.683Z,3.14
2023-03-07T15:18:08.164Z,3.17
2023-03-07T15:20:36.695Z,3.09
2023-03-07T15:23:07.946Z,3.15
2023-03-07T15:25:39.073Z,3.24
2023-03-07T15:28:17.099Z,3.15
2023-03-07T15:30:51.041Z,2.94
2023-03-07T15:33:26.189Z,3.12
2023-03-07T15:36:18.407Z,3.13
2023-03-07T15:38:48.342Z,2.86
2023-03-07T15:41:31.992Z,2.96
2023-03-07T15:44:19.923Z,3.03
2023-03-07T15:46:52.808Z,2.97
2023-03-07T15:49:26.194Z,2.89
2023-03-07T15:51:57.402Z,2.85
2023-03-07T15:54:33.605Z,2.73
2023-03-07T15:57:04.877Z,2.78
2023-03-07T15:59:37.017Z,2.83
2023-03-07T16:02:35.027Z,2.82
2023-03-07T16:05:05.890Z,2.85
2023-03-07T16:07:34.522Z,2.81
2023-03-07T16:10:02.806Z,2.85
2023-03-07T16:12:31.524Z,2.77
2023-03-07T16:15:03.481Z,2.55
2023-03-07T16:17:37.507Z,2.75
2023-03-07T16:20:14.768Z,2.63
2023-03-07T16:22:44.428Z,2.65
2023-03-07T16:25:13.206Z,2.68
2023-03-07T16:27:42.602Z,2.34
2023-03-07T16:30:15.856Z,2.55
2023-03-07T16:32:45.874Z,2.58
2023-03-07T16:35:17.085Z,2.42
2023-03-07T16:37:45.600Z,2.49
2023-03-07T16:40:16.214Z,2.53
2023-03-07T16:42:45.912Z,2.40
2023-03-07T16:45:23.384Z,2.32
2023-03-07T16:47:55.167Z,2.19
2023-03-07T16:50:25.769Z,2.22
2023-03-07T16:52:54.173Z,2.12
2023-03-07T16:55:23.539Z,2.13
2023-03-07T16:57:55.107Z,2.14
2023-03-07T17:00:26.059Z,2.06
2023-03-07T17:02:58.938Z,2.12
2023-03-07T17:05:29.192Z,2.07
2023-03-07T17:07:58.742Z,1.88
2023-03-07T17:10:28.583Z,2.03
2023-03-07T17:12:58.153Z,2.11
2023-03-07T17:15:31.282Z,1.51
2023-03-07T17:18:02.016Z,2.00
2023-03-07T17:20:30.459Z,1.96
2023-03-07T17:22:58.849Z,1.93
2023-03-07T17:25:28.556Z,2.02
2023-03-07T17:28:01.114Z,2.02
2023-03-07T17:30:31.116Z,1.75
2023-03-07T17:33:01.281Z,1.84
2023-03-07T17:35:30.779Z,1.91
2023-03-07T17:37:59.346Z,1.29
2023-03-07T17:40:27.954Z,1.85
2023-03-07T17:42:57.914Z,1.78
2023-03-07T17:45:27.232Z,1.73
2023-03-07T17:47:56.289Z,1.55
2023-03-07T17:50:26.103Z,1.48
2023-03-07T17:52:56.172Z,1.80
2023-03-07T17:55:26.213Z,1.93
2023-03-07T17:57:54.701Z,1.82
2023-03-07T18:00:23.988Z,1.77
2023-03-07T18:02:52.758Z,1.80
2023-03-07T18:05:21.174Z,1.47
2023-03-07T18:07:52.741Z,1.84
2023-03-07T18:10:21.372Z,1.44
2023-03-07T18:12:53.480Z,1.83
2023-03-07T18:15:23.253Z,1.93
2023-03-07T18:17:51.994Z,1.72
2023-03-07T18:20:22.421Z,1.82
2023-03-07T18:22:52.288Z,1.91
2023-03-07T18:25:20.779Z,1.62
2023-03-07T18:27:50.117Z,1.83
2023-03-07T18:30:19.120Z,1.65
2023-03-07T18:32:47.572Z,1.81
2023-03-07T18:35:16.857Z,1.81
2023-03-07T18:37:45.636Z,1.71
2023-03-07T18:40:15.776Z,1.93
2023-03-07T18:42:44.111Z,1.94
2023-03-07T18:45:13.297Z,1.70
2023-03-07T18:47:41.612Z,1.93
2023-03-07T18:50:11.785Z,1.85
2023-03-07T18:52:40.220Z,1.86
2023-03-07T18:55:09.040Z,1.67
2023-03-07T18:57:38.849Z,1.77
2023-03-07T19:00:10.296Z,1.97
2023-03-07T19:02:39.586Z,1.61
2023-03-07T19:05:08.926Z,1.76
2023-03-07T19:07:37.187Z,1.91
2023-03-07T19:10:06.426Z,1.41
2023-03-07T19:12:34.706Z,1.59
2023-03-07T19:15:04.849Z,1.78
2023-03-07T19:17:33.254Z,1.79
2023-03-07T19:20:01.516Z,1.64
2023-03-07T19:22:31.113Z,1.66
2023-03-07T19:24:59.449Z,1.68
2023-03-07T19:27:28.275Z,1.47
2023-03-07T19:29:56.591Z,1.55
2023-03-07T19:32:27.324Z,1.58
2023-03-07T19:34:55.995Z,1.59
2023-03-07T19:37:24.899Z,1.74
2023-03-07T19:39:54.320Z,1.45
2023-03-07T19:42:23.040Z,1.86
2023-03-07T19:44:51.357Z,1.77
2023-03-07T19:47:19.616Z,1.82
2023-03-07T19:49:49.321Z,1.69
2023-03-07T19:52:17.668Z,1.57
2023-03-07T19:54:46.640Z,1.69
2023-03-07T19:57:16.381Z,1.64
2023-03-07T19:59:44.810Z,1.62
2023-03-07T20:02:15.032Z,1.54
2023-03-07T20:04:43.328Z,1.71
2023-03-07T20:07:12.990Z,1.74
2023-03-07T20:09:41.325Z,1.62
2023-03-07T20:12:11.193Z,1.66
2023-03-07T20:14:42.948Z,1.62
2023-03-07T20:17:12.176Z,1.71
2023-03-07T20:19:40.589Z,1.63
2023-03-07T20:22:08.930Z,1.59
2023-03-07T20:24:38.608Z,1.71
2023-03-07T20:27:07.041Z,1.60
2023-03-07T20:29:35.304Z,1.53
2023-03-07T20:32:03.708Z,1.37
2023-03-07T20:34:32.027Z,1.22
2023-03-07T20:37:00.418Z,1.17
2023-03-07T20:39:28.661Z,1.01
2023-03-07T20:41:58.445Z,0.98
2023-03-07T20:44:26.688Z,0.95
2023-03-07T20:46:55.844Z,0.92
2023-03-07T20:49:24.475Z,0.89
2023-03-07T20:51:52.785Z,0.80
2023-03-07T20:54:21.193Z,0.73
2023-03-07T20:56:49.587Z,0.63
2023-03-07T20:59:20.455Z,0.69
2023-03-07T21:01:49.261Z,0.68
2023-03-07T21:04:20.710Z,0.75
2023-03-07T21:06:50.214Z,0.38
2023-03-07T21:09:19.821Z,0.74
2023-03-07T21:11:50.347Z,0.87
2023-03-07T21:14:21.349Z,0.83
2023-03-07T21:16:49.663Z,0.88
2023-03-07T21:19:17.974Z,0.86
2023-03-07T21:21:46.354Z,0.79
2023-03-07T21:24:15.799Z,0.82
2023-03-07T21:26:44.339Z,0.84
2023-03-07T21:29:14.175Z,0.72
2023-03-07T21:31:44.175Z,0.77
2023-03-07T21:34:15.285Z,0.76
2023-03-07T21:36:43.829Z,0.62
2023-03-07T21:39:12.845Z,0.66
2023-03-07T21:41:41.371Z,0.68
2023-03-07T21:44:10.953Z,0.69
2023-03-07T21:46:39.867Z,0.85
2023-03-07T21:49:09.675Z,0.90
2023-03-07T21:51:38.030Z,0.89
2023-03-07T21:54:06.660Z,0.84
2023-03-07T21:56:35.290Z,0.84
2023-03-07T21:59:03.661Z,0.76
2023-03-07T22:01:32.165Z,0.84
2023-03-07T22:04:00.953Z,0.75
2023-03-07T22:06:30.794Z,0.68
2023-03-07T22:09:00.487Z,0.68
2023-03-07T22:11:29.245Z,0.71
2023-03-07T22:13:57.524Z,0.75
2023-03-07T22:16:26.003Z,0.78
2023-03-07T22:18:55.517Z,0.80
2023-03-07T22:21:26.198Z,0.82
2023-03-07T22:23:58.473Z,0.73
2023-03-07T22:26:27.592Z,0.82
2023-03-07T22:28:56.394Z,0.64
2023-03-07T22:31:24.855Z,0.93
2023-03-07T22:33:53.330Z,0.82
2023-03-07T22:36:22.115Z,0.86
2023-03-07T22:38:56.767Z,0.93
2023-03-07T22:41:26.642Z,0.90
2023-03-07T22:43:55.374Z,0.89
2023-03-07T22:46:23.885Z,0.64
2023-03-07T22:48:56.065Z,0.95
2023-03-07T22:51:26.150Z,0.71
2023-03-07T22:53:56.149Z,0.49
2023-03-07T22:56:25.958Z,0.71
2023-03-07T22:58:54.920Z,0.80
2023-03-07T23:01:25.116Z,0.78
2023-03-07T23:03:55.478Z,0.80
2023-03-07T23:06:25.072Z,0.86
2023-03-07T23:08:55.669Z,0.63
2023-03-07T23:11:25.446Z,0.83
2023-03-07T23:13:54.496Z,0.88
2023-03-07T23:16:25.175Z,0.88
2023-03-07T23:18:55.052Z,0.92
2023-03-07T23:21:26.160Z,0.98
2023-03-07T23:23:56.966Z,0.94
2023-03-07T23:26:26.939Z,0.95
2023-03-07T23:28:55.622Z,0.87
2023-03-07T23:31:25.728Z,0.59
2023-03-07T23:33:56.676Z,0.86
2023-03-07T23:36:26.096Z,0.85
2023-03-07T23:38:55.880Z,0.75
2023-03-07T23:41:24.269Z,0.82
2023-03-07T23:43:52.928Z,0.84
2023-03-07T23:46:21.646Z,0.85
2023-03-07T23:48:49.997Z,0.86
2023-03-07T23:51:19.093Z,0.87
2023-03-07T23:53:47.353Z,0.87
2023-03-07T23:56:17.136Z,0.88
2023-03-07T23:58:47.677Z,0.61
